createdAt,value
2023-12-30T00:00:37.941Z,2.97
2023-12-30T00:03:05.193Z,2.90
2023-12-30T00:05:32.275Z,2.93
2023-12-30T00:07:59.340Z,2.92
2023-12-30T00:10:26.558Z,2.90
2023-12-30T00:12:53.737Z,2.83
2023-12-30T00:15:22.104Z,2.83
2023-12-30T00:17:49.322Z,2.78
2023-12-30T00:20:16.345Z,2.78
2023-12-30T00:22:43.384Z,2.77
2023-12-30T00:25:11.490Z,2.75
2023-12-30T00:27:38.675Z,2.75
2023-12-30T00:30:06.618Z,2.75
2023-12-30T00:32:33.992Z,2.72
2023-12-30T00:35:01.303Z,2.71
2023-12-30T00:37:28.410Z,2.69
2023-12-30T00:39:55.382Z,2.70
2023-12-30T00:42:22.516Z,2.73
2023-12-30T00:44:49.526Z,2.69
2023-12-30T00:47:16.343Z,2.64
2023-12-30T00:49:43.401Z,2.59
2023-12-30T00:52:11.346Z,2.47
2023-12-30T00:54:44.630Z,2.46
2023-12-30T00:57:17.568Z,2.46
2023-12-30T00:59:44.577Z,2.47
2023-12-30T01:02:11.572Z,2.45
2023-12-30T01:04:38.744Z,2.44
2023-12-30T01:07:05.617Z,2.45
2023-12-30T01:09:32.764Z,2.48
2023-12-30T01:11:59.778Z,2.50
2023-12-30T01:14:26.540Z,2.46
2023-12-30T01:16:53.319Z,2.39
2023-12-30T01:19:20.180Z,2.40
2023-12-30T01:21:47.792Z,2.39
2023-12-30T01:24:14.664Z,2.28
2023-12-30T01:26:41.651Z,2.29
2023-12-30T01:29:08.892Z,2.25
2023-12-30T01:31:35.989Z,2.23
2023-12-30T01:34:03.182Z,2.20
2023-12-30T01:36:30.195Z,2.20
2023-12-30T01:38:57.278Z,2.15
2023-12-30T01:41:24.185Z,2.12
2023-12-30T01:43:51.261Z,2.12
2023-12-30T01:46:18.285Z,2.13
2023-12-30T01:48:45.764Z,2.13
2023-12-30T01:51:24.372Z,2.10
2023-12-30T01:53:53.831Z,2.06
2023-12-30T01:56:21.887Z,2.00
2023-12-30T01:58:53.737Z,1.88
2023-12-30T02:01:23.856Z,1.90
2023-12-30T02:03:51.193Z,1.87
2023-12-30T02:06:18.310Z,1.81
2023-12-30T02:08:45.343Z,1.73
2023-12-30T02:11:13.294Z,1.80
2023-12-30T02:13:43.926Z,1.80
2023-12-30T02:16:11.985Z,1.78
2023-12-30T02:18:39.434Z,1.81
2023-12-30T02:21:06.616Z,1.78
2023-12-30T02:23:33.607Z,1.75
2023-12-30T02:26:00.380Z,1.72
2023-12-30T02:28:27.374Z,1.68
2023-12-30T02:30:54.485Z,1.53
2023-12-30T02:33:21.571Z,1.61
2023-12-30T02:35:48.399Z,1.59
2023-12-30T02:38:15.480Z,1.64
2023-12-30T02:40:42.331Z,1.60
2023-12-30T02:43:09.461Z,1.65
2023-12-30T02:45:36.804Z,1.67
2023-12-30T02:48:04.399Z,1.67
2023-12-30T02:50:31.210Z,1.64
2023-12-30T02:52:58.317Z,1.70
2023-12-30T02:55:25.408Z,1.71
2023-12-30T02:57:52.470Z,1.74
2023-12-30T03:00:19.845Z,1.76
2023-12-30T03:02:47.272Z,1.80
2023-12-30T03:05:14.734Z,1.79
2023-12-30T03:07:41.960Z,1.81
2023-12-30T03:10:09.885Z,1.84
2023-12-30T03:12:37.034Z,1.89
2023-12-30T03:15:04.028Z,1.86
2023-12-30T03:17:31.132Z,1.89
2023-12-30T03:19:58.299Z,1.84
2023-12-30T03:22:25.958Z,1.87
2023-12-30T03:24:53.096Z,1.90
2023-12-30T03:27:20.240Z,1.95
2023-12-30T03:29:47.315Z,1.98
2023-12-30T03:32:14.921Z,2.03
2023-12-30T03:34:42.039Z,2.03
2023-12-30T03:37:09.074Z,1.99
2023-12-30T03:39:36.485Z,2.04
2023-12-30T03:42:03.662Z,2.06
2023-12-30T03:44:30.727Z,2.08
2023-12-30T03:46:57.798Z,2.07
2023-12-30T03:49:25.180Z,2.06
2023-12-30T03:51:52.427Z,2.05
2023-12-30T03:54:19.386Z,2.03
2023-12-30T03:56:48.367Z,2.02
2023-12-30T03:59:15.491Z,2.03
2023-12-30T04:01:44.172Z,2.02
2023-12-30T04:04:11.711Z,1.97
2023-12-30T04:06:38.801Z,1.95
2023-12-30T04:09:05.665Z,1.91
2023-12-30T04:11:32.458Z,1.92
2023-12-30T04:13:59.574Z,1.94
2023-12-30T04:16:26.672Z,1.89
2023-12-30T04:18:53.986Z,1.90
2023-12-30T04:21:21.217Z,1.86
2023-12-30T04:23:48.315Z,1.85
2023-12-30T04:26:15.343Z,1.77
2023-12-30T04:28:42.399Z,1.75
2023-12-30T04:31:09.506Z,1.76
2023-12-30T04:33:36.708Z,1.79
2023-12-30T04:36:04.299Z,1.63
2023-12-30T04:38:31.108Z,1.61
2023-12-30T04:40:57.895Z,1.64
2023-12-30T04:43:24.904Z,1.41
2023-12-30T04:45:51.955Z,1.41
2023-12-30T04:48:19.082Z,1.50
2023-12-30T04:50:45.929Z,1.56
2023-12-30T04:53:12.806Z,1.64
2023-12-30T04:55:39.832Z,1.69
2023-12-30T04:58:06.887Z,1.61
2023-12-30T05:00:34.647Z,1.58
2023-12-30T05:03:01.780Z,1.59
2023-12-30T05:05:29.173Z,1.35
2023-12-30T05:07:56.218Z,1.43
2023-12-30T05:10:23.295Z,1.43
2023-12-30T05:12:50.956Z,1.26
2023-12-30T05:15:18.149Z,1.26
2023-12-30T05:17:45.345Z,1.26
2023-12-30T05:20:13.925Z,1.24
2023-12-30T05:22:41.766Z,1.20
2023-12-30T05:25:09.348Z,1.24
2023-12-30T05:27:36.982Z,1.17
2023-12-30T05:30:05.564Z,1.17
2023-12-30T05:32:32.648Z,1.15
2023-12-30T05:35:00.591Z,1.12
2023-12-30T05:37:27.517Z,1.11
2023-12-30T05:39:55.147Z,1.10
2023-12-30T05:42:22.326Z,1.11
2023-12-30T05:44:49.306Z,1.14
2023-12-30T05:47:16.306Z,1.16
2023-12-30T05:49:43.159Z,1.07
2023-12-30T05:52:10.298Z,1.04
2023-12-30T05:54:37.331Z,1.03
2023-12-30T05:57:04.563Z,1.01
2023-12-30T05:59:31.466Z,0.92
2023-12-30T06:02:00.089Z,0.95
2023-12-30T06:04:27.335Z,0.95
2023-12-30T06:06:55.342Z,0.91
2023-12-30T06:09:22.497Z,0.87
2023-12-30T06:11:50.013Z,0.85
2023-12-30T06:14:17.268Z,0.74
2023-12-30T06:16:44.304Z,0.79
2023-12-30T06:19:12.884Z,0.71
2023-12-30T06:21:40.702Z,0.61
2023-12-30T06:24:07.743Z,0.70
2023-12-30T06:26:39.190Z,0.70
2023-12-30T06:29:07.835Z,0.69
2023-12-30T06:31:34.885Z,0.71
2023-12-30T06:34:01.989Z,0.72
2023-12-30T06:36:29.005Z,0.80
2023-12-30T06:38:56.029Z,0.86
2023-12-30T06:41:23.083Z,0.94
2023-12-30T06:43:50.162Z,1.01
2023-12-30T06:46:21.374Z,1.07
2023-12-30T06:48:48.573Z,1.13
2023-12-30T06:51:15.506Z,1.24
2023-12-30T06:53:42.485Z,1.29
2023-12-30T06:56:09.464Z,1.33
2023-12-30T06:58:37.118Z,1.34
2023-12-30T07:01:06.138Z,1.35
2023-12-30T07:03:33.544Z,1.34
2023-12-30T07:06:00.737Z,1.37
2023-12-30T07:08:27.864Z,1.38
2023-12-30T07:10:54.954Z,1.39
2023-12-30T07:13:22.067Z,1.38
2023-12-30T07:15:49.092Z,1.41
2023-12-30T07:18:16.387Z,1.38
2023-12-30T07:20:43.503Z,1.55
2023-12-30T07:23:10.560Z,1.62
2023-12-30T07:25:37.691Z,1.74
2023-12-30T07:28:04.938Z,1.87
2023-12-30T07:30:32.024Z,2.01
2023-12-30T07:32:59.310Z,2.12
2023-12-30T07:35:28.487Z,2.32
2023-12-30T07:37:55.348Z,2.59
2023-12-30T07:40:22.627Z,2.86
2023-12-30T07:42:49.494Z,3.08
2023-12-30T07:45:16.354Z,3.25
2023-12-30T07:47:43.369Z,3.57
2023-12-30T07:50:10.379Z,3.89
2023-12-30T07:52:37.494Z,4.25
2023-12-30T07:55:04.896Z,4.23
2023-12-30T07:57:31.935Z,4.27
2023-12-30T07:59:59.004Z,4.52
2023-12-30T08:02:25.869Z,4.49
2023-12-30T08:04:55.644Z,4.57
2023-12-30T08:07:22.983Z,4.45
2023-12-30T08:09:50.045Z,4.48
2023-12-30T08:12:17.050Z,4.54
2023-12-30T08:14:43.849Z,4.61
2023-12-30T08:17:10.720Z,4.62
2023-12-30T08:19:37.871Z,4.55
2023-12-30T08:22:04.910Z,4.41
2023-12-30T08:24:31.636Z,4.64
2023-12-30T08:26:58.511Z,4.78
2023-12-30T08:29:25.569Z,4.85
2023-12-30T08:31:52.389Z,4.81
2023-12-30T08:34:21.884Z,4.75
2023-12-30T08:36:48.774Z,4.71
2023-12-30T08:39:15.773Z,4.86
2023-12-30T08:41:42.783Z,4.97
2023-12-30T08:44:10.019Z,5.24
2023-12-30T08:46:37.653Z,5.20
2023-12-30T08:49:07.411Z,5.10
2023-12-30T08:51:36.121Z,5.16
2023-12-30T08:54:03.125Z,5.03
2023-12-30T08:56:34.567Z,5.06
2023-12-30T08:59:01.974Z,5.19
2023-12-30T09:01:28.968Z,5.11
2023-12-30T09:03:56.157Z,5.08
2023-12-30T09:06:23.208Z,4.81
2023-12-30T09:08:50.295Z,4.71
2023-12-30T09:11:20.778Z,4.64
2023-12-30T09:13:48.819Z,4.62
2023-12-30T09:16:15.732Z,4.59
2023-12-30T09:18:43.397Z,4.55
2023-12-30T09:21:10.800Z,4.60
2023-12-30T09:23:38.604Z,4.72
2023-12-30T09:26:05.856Z,4.99
2023-12-30T09:28:33.400Z,5.30
2023-12-30T09:31:00.963Z,5.45
2023-12-30T09:33:27.982Z,6.00
2023-12-30T09:35:56.040Z,6.39
2023-12-30T09:38:26.559Z,6.45
2023-12-30T09:40:55.402Z,6.59
2023-12-30T09:43:25.125Z,6.90
2023-12-30T09:45:52.970Z,7.06
2023-12-30T09:48:26.903Z,7.40
2023-12-30T09:50:59.918Z,7.84
2023-12-30T09:53:28.102Z,8.06
2023-12-30T09:55:55.268Z,8.86
2023-12-30T09:58:23.750Z,9.37
2023-12-30T10:00:51.198Z,10.18
2023-12-30T10:03:20.085Z,10.96
2023-12-30T10:05:48.512Z,11.48
2023-12-30T10:08:16.359Z,11.92
2023-12-30T10:10:54.735Z,12.07
2023-12-30T10:13:27.249Z,12.26
2023-12-30T10:15:56.429Z,12.41
2023-12-30T10:18:23.714Z,12.30
2023-12-30T10:20:50.821Z,12.43
2023-12-30T10:23:17.774Z,12.55
2023-12-30T10:25:46.930Z,12.70
2023-12-30T10:28:14.467Z,12.77
2023-12-30T10:30:41.649Z,12.94
2023-12-30T10:33:10.739Z,13.10
2023-12-30T10:35:42.377Z,13.28
2023-12-30T10:38:10.688Z,13.58
2023-12-30T10:40:37.685Z,13.79
2023-12-30T10:43:05.645Z,13.42
2023-12-30T10:45:32.648Z,13.56
2023-12-30T10:48:01.068Z,13.69
2023-12-30T10:50:28.815Z,13.66
2023-12-30T10:53:06.549Z,13.61
2023-12-30T10:55:34.807Z,13.44
2023-12-30T10:58:14.898Z,13.29
2023-12-30T11:00:43.921Z,13.32
2023-12-30T11:03:11.240Z,13.39
2023-12-30T11:06:06.130Z,13.53
2023-12-30T11:08:33.273Z,13.61
2023-12-30T11:11:03.768Z,14.11
2023-12-30T11:13:37.678Z,14.52
2023-12-30T11:16:15.347Z,15.20
2023-12-30T11:18:54.877Z,15.72
2023-12-30T11:21:37.653Z,15.79
2023-12-30T11:24:06.576Z,15.93
2023-12-30T11:26:35.357Z,15.90
2023-12-30T11:29:03.133Z,16.43
2023-12-30T11:31:35.256Z,17.18
2023-12-30T11:34:03.057Z,17.52
2023-12-30T11:36:30.361Z,17.43
2023-12-30T11:38:59.197Z,17.43
2023-12-30T11:41:27.462Z,17.54
2023-12-30T11:43:59.439Z,17.73
2023-12-30T11:46:29.810Z,17.95
2023-12-30T11:49:00.295Z,18.16
2023-12-30T11:51:31.742Z,18.59
2023-12-30T11:54:04.054Z,19.11
2023-12-30T11:56:31.273Z,19.43
2023-12-30T11:58:58.530Z,19.45
2023-12-30T12:01:25.693Z,19.06
2023-12-30T12:03:53.931Z,18.91
2023-12-30T12:06:20.901Z,19.02
2023-12-30T12:08:48.630Z,18.81
2023-12-30T12:11:15.537Z,18.69
2023-12-30T12:13:42.566Z,18.56
2023-12-30T12:16:09.854Z,18.51
2023-12-30T12:18:37.574Z,18.75
2023-12-30T12:21:12.548Z,18.81
2023-12-30T12:23:39.379Z,18.92
2023-12-30T12:26:08.111Z,18.82
2023-12-30T12:28:35.237Z,19.14
2023-12-30T12:31:03.295Z,19.83
2023-12-30T12:33:30.774Z,20.43
2023-12-30T12:35:57.662Z,21.11
2023-12-30T12:38:24.896Z,21.14
2023-12-30T12:40:52.507Z,21.43
2023-12-30T12:43:19.712Z,21.17
2023-12-30T12:45:46.512Z,20.46
2023-12-30T12:48:13.540Z,19.21
2023-12-30T12:50:40.702Z,18.95
2023-12-30T12:53:07.456Z,18.04
2023-12-30T12:55:34.334Z,17.86
2023-12-30T12:58:01.437Z,17.71
2023-12-30T13:00:28.491Z,17.57
2023-12-30T13:02:55.470Z,18.23
2023-12-30T13:05:23.688Z,18.76
2023-12-30T13:07:51.182Z,18.58
2023-12-30T13:10:37.581Z,18.96
2023-12-30T13:13:08.218Z,18.98
2023-12-30T13:15:36.027Z,18.70
2023-12-30T13:18:06.549Z,18.20
2023-12-30T13:20:33.699Z,17.84
2023-12-30T13:23:04.551Z,17.68
2023-12-30T13:25:31.891Z,17.12
2023-12-30T13:27:59.490Z,16.96
2023-12-30T13:30:26.443Z,16.48
2023-12-30T13:33:02.627Z,16.31
2023-12-30T13:35:39.965Z,16.20
2023-12-30T13:38:13.000Z,16.11
2023-12-30T13:40:42.244Z,16.01
2023-12-30T13:43:10.588Z,15.96
2023-12-30T13:45:48.137Z,15.69
2023-12-30T13:48:34.043Z,15.45
2023-12-30T13:51:03.077Z,15.07
2023-12-30T13:53:30.255Z,14.82
2023-12-30T13:55:59.274Z,14.49
2023-12-30T13:58:26.160Z,14.39
2023-12-30T14:00:53.213Z,14.24
2023-12-30T14:03:20.519Z,14.12
2023-12-30T14:05:48.918Z,14.02
2023-12-30T14:08:28.240Z,13.97
2023-12-30T14:10:55.610Z,13.90
2023-12-30T14:13:24.518Z,13.84
2023-12-30T14:15:52.820Z,13.63
2023-12-30T14:18:20.470Z,13.53
2023-12-30T14:20:48.092Z,13.32
2023-12-30T14:23:15.403Z,13.16
2023-12-30T14:25:42.459Z,13.03
2023-12-30T14:28:10.759Z,12.90
2023-12-30T14:30:39.826Z,12.73
2023-12-30T14:33:07.374Z,12.60
2023-12-30T14:35:34.649Z,12.40
2023-12-30T14:38:02.801Z,12.26
2023-12-30T14:40:30.039Z,12.07
2023-12-30T14:42:57.162Z,11.92
2023-12-30T14:45:24.243Z,11.74
2023-12-30T14:47:51.263Z,11.59
2023-12-30T14:50:18.647Z,11.42
2023-12-30T14:52:45.802Z,11.25
2023-12-30T14:55:12.851Z,11.05
2023-12-30T14:57:41.132Z,10.87
2023-12-30T15:00:15.482Z,10.69
2023-12-30T15:02:44.058Z,10.54
2023-12-30T15:05:15.292Z,10.41
2023-12-30T15:07:44.572Z,10.27
2023-12-30T15:10:14.947Z,10.13
2023-12-30T15:12:44.035Z,9.98
2023-12-30T15:15:12.814Z,9.85
2023-12-30T15:17:40.065Z,9.66
2023-12-30T15:20:09.578Z,9.59
2023-12-30T15:22:36.791Z,9.51
2023-12-30T15:25:04.003Z,9.44
2023-12-30T15:27:31.419Z,9.37
2023-12-30T15:29:58.553Z,9.30
2023-12-30T15:32:25.730Z,9.22
2023-12-30T15:34:52.668Z,9.18
2023-12-30T15:37:19.783Z,9.15
2023-12-30T15:39:46.824Z,9.03
2023-12-30T15:42:13.842Z,8.95
2023-12-30T15:44:41.032Z,8.77
2023-12-30T15:47:10.923Z,8.71
2023-12-30T15:49:43.127Z,8.63
2023-12-30T15:52:11.592Z,8.44
2023-12-30T15:54:39.663Z,8.35
2023-12-30T15:57:06.837Z,8.28
2023-12-30T15:59:33.957Z,8.19
2023-12-30T16:02:01.338Z,8.09
2023-12-30T16:04:28.380Z,8.02
2023-12-30T16:06:55.294Z,7.98
2023-12-30T16:09:22.410Z,7.92
2023-12-30T16:11:50.152Z,7.77
2023-12-30T16:14:17.044Z,7.74
2023-12-30T16:16:47.161Z,7.71
2023-12-30T16:19:19.791Z,7.66
2023-12-30T16:21:51.008Z,7.48
2023-12-30T16:24:18.683Z,7.43
2023-12-30T16:26:46.016Z,7.37
2023-12-30T16:29:13.070Z,7.18
2023-12-30T16:31:40.354Z,7.18
2023-12-30T16:34:07.639Z,7.13
2023-12-30T16:36:36.357Z,7.12
2023-12-30T16:39:03.644Z,7.04
2023-12-30T16:41:30.826Z,7.00
2023-12-30T16:43:58.831Z,6.93
2023-12-30T16:46:25.948Z,6.91
2023-12-30T16:48:52.971Z,6.87
2023-12-30T16:51:20.043Z,6.81
2023-12-30T16:53:47.067Z,6.81
2023-12-30T16:56:16.714Z,6.77
2023-12-30T16:58:43.560Z,6.70
2023-12-30T17:01:10.446Z,6.66
2023-12-30T17:03:37.198Z,6.63
2023-12-30T17:06:04.839Z,6.60
2023-12-30T17:08:31.971Z,6.57
2023-12-30T17:10:59.530Z,6.53
2023-12-30T17:13:34.898Z,6.49
2023-12-30T17:16:06.941Z,6.50
2023-12-30T17:18:33.807Z,6.51
2023-12-30T17:21:00.826Z,6.50
2023-12-30T17:23:27.904Z,6.46
2023-12-30T17:25:54.930Z,6.44
2023-12-30T17:28:21.712Z,6.41
2023-12-30T17:30:49.278Z,6.36
2023-12-30T17:33:16.481Z,6.36
2023-12-30T17:35:44.339Z,6.35
2023-12-30T17:38:11.287Z,6.33
2023-12-30T17:40:39.170Z,6.26
2023-12-30T17:43:06.667Z,6.21
2023-12-30T17:45:33.898Z,6.21
2023-12-30T17:48:00.971Z,6.05
2023-12-30T17:50:27.982Z,6.07
2023-12-30T17:52:54.769Z,6.04
2023-12-30T17:55:21.780Z,5.98
2023-12-30T17:57:48.902Z,5.92
2023-12-30T18:00:15.891Z,5.88
2023-12-30T18:02:43.791Z,5.84
2023-12-30T18:05:11.226Z,5.80
2023-12-30T18:07:38.337Z,5.76
2023-12-30T18:10:05.599Z,5.76
2023-12-30T18:12:32.605Z,5.78
2023-12-30T18:14:59.679Z,5.79
2023-12-30T18:17:28.863Z,5.76
2023-12-30T18:19:55.899Z,5.70
2023-12-30T18:22:23.038Z,5.67
2023-12-30T18:24:49.953Z,5.63
2023-12-30T18:27:16.719Z,5.59
2023-12-30T18:29:43.581Z,5.54
2023-12-30T18:32:11.859Z,5.50
2023-12-30T18:34:42.043Z,5.47
2023-12-30T18:37:08.978Z,5.37
2023-12-30T18:39:36.339Z,5.38
2023-12-30T18:42:03.601Z,5.33
2023-12-30T18:44:30.851Z,5.27
2023-12-30T18:46:58.788Z,5.17
2023-12-30T18:49:25.780Z,5.16
2023-12-30T18:51:52.640Z,5.15
2023-12-30T18:54:19.448Z,5.14
2023-12-30T18:56:47.127Z,5.11
2023-12-30T18:59:14.209Z,5.12
2023-12-30T19:01:46.319Z,5.11
2023-12-30T19:04:13.977Z,5.10
2023-12-30T19:06:40.974Z,5.08
2023-12-30T19:09:08.802Z,5.04
2023-12-30T19:11:36.332Z,5.04
2023-12-30T19:14:03.159Z,5.03
2023-12-30T19:16:30.110Z,5.03
2023-12-30T19:18:57.366Z,5.05
2023-12-30T19:21:24.428Z,5.06
2023-12-30T19:23:51.238Z,5.07
2023-12-30T19:26:18.102Z,5.10
2023-12-30T19:28:44.884Z,5.17
2023-12-30T19:31:14.594Z,5.23
2023-12-30T19:33:43.127Z,5.25
2023-12-30T19:36:11.496Z,5.25
2023-12-30T19:38:39.057Z,5.22
2023-12-30T19:41:06.161Z,5.18
2023-12-30T19:43:35.325Z,5.16
2023-12-30T19:46:06.885Z,5.14
2023-12-30T19:48:35.072Z,5.09
2023-12-30T19:51:04.897Z,5.00
2023-12-30T19:53:32.528Z,4.85
2023-12-30T19:55:59.253Z,4.70
2023-12-30T19:58:27.817Z,4.64
2023-12-30T20:00:54.964Z,4.54
2023-12-30T20:03:21.850Z,4.49
2023-12-30T20:05:48.819Z,4.39
2023-12-30T20:08:16.047Z,4.33
2023-12-30T20:10:44.092Z,4.28
2023-12-30T20:13:11.331Z,4.23
2023-12-30T20:15:38.544Z,4.24
2023-12-30T20:18:06.097Z,4.21
2023-12-30T20:20:33.189Z,4.16
2023-12-30T20:23:01.076Z,4.14
2023-12-30T20:25:31.004Z,4.09
2023-12-30T20:27:58.846Z,4.04
2023-12-30T20:30:27.540Z,4.02
2023-12-30T20:32:54.881Z,4.09
2023-12-30T20:35:22.058Z,4.22
2023-12-30T20:37:48.950Z,4.31
2023-12-30T20:40:16.507Z,4.35
2023-12-30T20:42:43.318Z,4.39
2023-12-30T20:45:11.224Z,4.40
2023-12-30T20:47:38.794Z,4.44
2023-12-30T20:50:06.193Z,4.50
2023-12-30T20:52:33.326Z,4.52
2023-12-30T20:55:04.353Z,4.48
2023-12-30T20:57:31.839Z,4.42
2023-12-30T20:59:58.832Z,4.39
2023-12-30T21:02:26.061Z,4.37
2023-12-30T21:04:55.470Z,4.37
2023-12-30T21:07:22.628Z,4.40
2023-12-30T21:09:49.798Z,4.46
2023-12-30T21:12:16.876Z,4.48
2023-12-30T21:14:43.902Z,4.46
2023-12-30T21:17:11.300Z,4.45
2023-12-30T21:19:38.460Z,4.43
2023-12-30T21:22:06.612Z,4.41
2023-12-30T21:24:33.726Z,4.42
2023-12-30T21:27:00.823Z,4.46
2023-12-30T21:29:27.887Z,4.51
2023-12-30T21:31:55.895Z,4.59
2023-12-30T21:34:23.105Z,4.63
2023-12-30T21:36:50.200Z,4.64
2023-12-30T21:39:18.527Z,4.66
2023-12-30T21:41:45.504Z,4.68
2023-12-30T21:44:12.399Z,4.70
2023-12-30T21:46:46.402Z,4.68
2023-12-30T21:49:15.892Z,4.70
2023-12-30T21:51:44.044Z,4.67
2023-12-30T21:54:11.492Z,4.63
2023-12-30T21:56:38.325Z,4.63
2023-12-30T21:59:05.304Z,4.67
2023-12-30T22:01:32.863Z,4.66
2023-12-30T22:03:59.910Z,4.64
2023-12-30T22:06:26.776Z,4.62
2023-12-30T22:08:53.963Z,4.58
2023-12-30T22:11:21.002Z,4.53
2023-12-30T22:13:48.150Z,4.48
2023-12-30T22:16:14.984Z,4.45
2023-12-30T22:18:42.111Z,4.42
2023-12-30T22:21:09.215Z,4.39
2023-12-30T22:23:37.347Z,4.38
2023-12-30T22:26:04.286Z,4.34
2023-12-30T22:28:31.301Z,4.31
2023-12-30T22:30:58.388Z,4.32
2023-12-30T22:33:26.126Z,4.26
2023-12-30T22:35:53.217Z,4.30
2023-12-30T22:38:20.293Z,4.28
2023-12-30T22:40:47.044Z,4.29
2023-12-30T22:43:13.887Z,4.31
2023-12-30T22:45:42.086Z,4.31
2023-12-30T22:48:09.224Z,4.33
2023-12-30T22:50:36.512Z,4.37
2023-12-30T22:53:04.065Z,4.40
2023-12-30T22:55:31.378Z,4.40
2023-12-30T22:57:58.368Z,4.40
2023-12-30T23:00:28.570Z,4.39
2023-12-30T23:02:56.217Z,4.37
2023-12-30T23:05:23.481Z,4.34
2023-12-30T23:07:50.499Z,4.28
2023-12-30T23:10:17.605Z,4.27
2023-12-30T23:12:44.938Z,4.26
2023-12-30T23:15:13.217Z,4.22
2023-12-30T23:17:39.970Z,4.22
2023-12-30T23:20:10.164Z,4.24
2023-12-30T23:22:37.009Z,4.23
2023-12-30T23:25:06.271Z,4.23
2023-12-30T23:27:33.926Z,4.23
2023-12-30T23:30:04.578Z,4.24
2023-12-30T23:32:33.881Z,4.25
2023-12-30T23:35:01.486Z,4.23
2023-12-30T23:37:28.503Z,4.20
2023-12-30T23:39:55.686Z,4.21
2023-12-30T23:42:22.680Z,4.17
2023-12-30T23:44:49.708Z,4.15
2023-12-30T23:47:16.680Z,4.14
2023-12-30T23:49:43.758Z,4.14
2023-12-30T23:52:10.933Z,4.13
2023-12-30T23:54:38.001Z,4.15
2023-12-30T23:57:05.284Z,4.10
2023-12-30T23:59:32.094Z,4.04
